Historyczne dane pomiarowe

Dodano dane terminowe – wersja testowa.

Dane z okresu 1951-2019

Wersja bazy: 1.34 [2019-03-16, lista zmian], aktualizacja planowana na 2019-04-15

Dane meteo z obszaru Polski uzyskane na podstawie danych udostępnionych przez Instytut Meteorologii i Gospodarki Wodnej – Państwowy Instytut Badawczy.

 

Wybierz Datę:    

       

TemperaturaWilgotnośćWiatrCiśnienieOpadyŚniegCzas trwania zjawisk
 Stacja t tx tn tng RH VA  wxwx mslp ppp RRR   cm mm wxwxwxwxwxwxwx
1999-08-14 14.6 21.8 8.8--- 2.7 2.7---- 0.0------------
1999-08-13 13.8 17.9 10.3--- 3.7 1.0---- 0.0------------
1999-08-12 16.9 22.0 13.2--- 4.3 2.0---- 0.0------------
1999-08-11 20.1 25.0 15.5--- 6.0 2.3---- 0.0------------
1999-08-10 20.0 27.0 14.0--- 5.0 1.7---- 2.3------------
1999-08-09 22.6 30.0 16.0--- 2.7 2.0---- 1.2------------
1999-08-08 21.2 28.0 15.0--- 2.0 2.0---- 0.0------------
1999-08-07 19.7 26.2 13.5--- 3.7 2.3---- 1.3------------
1999-08-06 20.2 25.8 15.0--- 6.7 1.7---- 0.0------------
1999-08-05 18.1 24.0 12.9--- 2.3 2.3---- 1.4------------
1999-08-04 19.3 26.0 12.2--- 2.7 1.3---- 0.0------------
1999-08-03 18.6 25.0 13.0--- 2.0 1.7---- 0.0------------
1999-08-02 16.6 23.7 10.5--- 5.3 2.3---- 0.0------------
1999-08-01 16.4 22.0 11.8--- 4.0 2.3---- 0.0------------
1999-07-31 18.9 25.0 13.0--- 3.0 2.7---- 0.0------------
1999-07-30 18.8 25.0 12.0--- 1.7 2.0---- 0.0------------
1999-07-29 17.9 25.0 12.0--- 1.3 2.7---- 0.0------------
1999-07-28 18.2 25.0 13.0--- 1.0 3.0---- 0.0------------
1999-07-27 17.6 23.8 11.0--- 5.3 3.3---- 0.0------------
1999-07-26 18.9 25.8 12.0--- 3.3 1.7---- 0.0------------
1999-07-25 18.6 23.0 13.0--- 2.3 1.3---- 0.0------------
1999-07-24 16.7 22.0 11.9--- 6.7 1.3---- 0.0------------
1999-07-23 16.2 20.0 13.0--- 7.7 2.7---- 1.4------------
1999-07-22 16.4 22.0 11.5--- 6.0 1.3---- 0.3------------
1999-07-21 17.8 23.0 12.0--- 4.3 2.7---- 0.0------------
1999-07-20 20.9 26.0 16.8--- 1.0 1.7---- 0.0------------
1999-07-19 19.8 28.0 14.3--- 1.3 1.0---- 0.0------------
1999-07-18 18.4 25.8 14.0--- 2.0 1.7---- 0.0------------
1999-07-17 18.3 23.2 14.0--- 1.0 1.3---- 0.0------------
1999-07-16 15.7 22.0 10.0--- 3.3 2.0---- 0.0------------
1999-07-15 17.3 23.3 14.0--- 5.0 3.0---- 0.7------------
1999-07-14 19.9 26.0 14.2--- 6.7 2.3---- 0.8------------
1999-07-13 19.2 25.2 14.0--- 6.7 2.0---- 31.5------------
1999-07-12 19.5 25.0 12.0--- 6.7 1.7---- 0.0------------
1999-07-11 17.2 23.0 13.0--- 6.3 4.3---- 0.0------------
1999-07-10 19.6 25.0 14.0--- 5.0 4.7---- 0.0------------
1999-07-09 17.2 21.0 14.0--- 7.7 1.7---- 0.0------------
1999-07-08 16.8 22.0 13.0--- 8.0 2.7---- 1.1------------
1999-07-07 20.5 27.0 16.2--- 5.7 2.3---- 37.5------------
1999-07-06 23.9 30.0 16.0--- 0.7 2.0---- 0.0------------
1999-07-05 23.7 29.0 16.8--- 0.3 2.0---- 0.0------------
1999-07-04 22.8 30.2 17.0--- 0.0 1.7---- 0.0------------
1999-07-03 21.0 27.5 14.5--- 2.3 1.7---- 0.0------------
1999-07-02 17.3 23.7 12.3--- 3.0 2.7---- 0.0------------
1999-07-01 17.9 25.0 11.6--- 5.7 1.7---- 0.0------------
1999-06-30 17.9 25.0 12.0--- 2.7 1.3---- 0.0------------
1999-06-29 16.5 24.0 10.0--- 1.7 2.3---- 0.0------------
1999-06-28 17.6 25.0 12.5--- 4.3 2.3---- 1.5------------
1999-06-27 17.2 24.0 12.0--- 0.7 2.0---- 0.0------------
1999-06-26 14.7 20.0 10.0--- 5.3 2.7---- 0.0------------
1999-06-25 11.7 17.0 5.0--- 3.3 1.3---- 2.4------------
1999-06-24 11.5 18.0 6.0--- 4.7 2.7---- 0.0------------
1999-06-23 11.8 17.4 8.0--- 7.7 5.3---- 0.4------------
1999-06-22 10.5 16.8 8.0--- 8.0 7.7---- 41.2------------
1999-06-21 15.6 19.0 12.8--- 5.7 3.3---- 29.0------------
1999-06-20 15.9 20.0 12.9--- 6.7 0.7---- 0.0------------
1999-06-19 14.0 17.2 11.8--- 8.0 1.3---- 0.2------------
1999-06-18 16.9 20.0 15.0--- 8.0 2.3---- 31.5------------
1999-06-17 17.9 22.0 14.0--- 8.0 2.0---- 1.2------------
1999-06-16 15.7 19.0 12.8--- 8.0 1.7---- 5.5------------
328.4 ms

 

Źródłem pochodzenia danych jest Instytut Meteorologii i Gospodarki Wodnej – Państwowy Instytut Badawczy. Dane Instytutu Meteorologii i Gospodarki Wodnej – Państwowego Instytutu Badawczego zostały przetworzone.

Dane źródłowe można odnaleźć na stronie https://dane.imgw.pl